createdAt,value
2019-05-23T00:02:03.607Z,1013.17
2019-05-23T00:06:59.612Z,1013.19
2019-05-23T00:11:57.502Z,1013.26
2019-05-23T00:16:54.406Z,1013.29
2019-05-23T00:21:51.168Z,1013.24
2019-05-23T00:26:49.302Z,1013.30
2019-05-23T00:31:46.965Z,1013.16
2019-05-23T00:36:44.766Z,1013.26
2019-05-23T00:41:42.506Z,1013.32
2019-05-23T00:46:39.095Z,1013.19
2019-05-23T00:51:36.808Z,1013.15
2019-05-23T00:56:33.671Z,1013.14
2019-05-23T01:01:30.655Z,1013.15
2019-05-23T01:06:27.776Z,1013.18
2019-05-23T01:11:24.796Z,1013.33
2019-05-23T01:16:21.501Z,1013.23
2019-05-23T01:21:18.290Z,1013.28
2019-05-23T01:26:14.859Z,1013.32
2019-05-23T01:31:13.326Z,1013.22
2019-05-23T01:36:10.740Z,1013.22
2019-05-23T01:41:07.751Z,1013.18
2019-05-23T01:46:04.551Z,1013.21
2019-05-23T01:51:01.847Z,1013.30
2019-05-23T01:55:58.783Z,1013.15
2019-05-23T02:00:55.927Z,1013.19
2019-05-23T02:05:53.080Z,1013.16
2019-05-23T02:10:49.885Z,1013.17
2019-05-23T02:15:46.780Z,1013.19
2019-05-23T02:20:44.138Z,1013.11
2019-05-23T02:25:41.048Z,1013.04
2019-05-23T02:30:38.015Z,1012.95
2019-05-23T02:35:35.591Z,1012.99
2019-05-23T02:40:32.609Z,1012.93
2019-05-23T02:45:30.758Z,1012.92
2019-05-23T02:50:27.598Z,1012.88
2019-05-23T02:55:25.550Z,1012.98
2019-05-23T03:00:22.190Z,1012.85
2019-05-23T03:05:19.596Z,1012.97
2019-05-23T03:10:16.725Z,1012.88
2019-05-23T03:15:14.170Z,1012.92
2019-05-23T03:20:12.226Z,1012.84
2019-05-23T03:25:08.928Z,1012.88
2019-05-23T03:30:05.915Z,1012.90
2019-05-23T03:35:03.367Z,1012.78
2019-05-23T03:40:00.470Z,1012.82
2019-05-23T03:44:57.549Z,1012.79
2019-05-23T03:49:54.660Z,1012.85
2019-05-23T03:54:52.200Z,1012.79
2019-05-23T03:59:49.597Z,1012.84
2019-05-23T04:04:46.465Z,1012.71
2019-05-23T04:09:44.715Z,1012.86
2019-05-23T04:14:40.063Z,1012.75
2019-05-23T04:19:35.811Z,1012.72
2019-05-23T04:24:31.938Z,1012.73
2019-05-23T04:29:29.128Z,1012.62
2019-05-23T04:34:26.959Z,1012.63
2019-05-23T04:39:23.113Z,1012.62
2019-05-23T04:44:19.194Z,1012.64
2019-05-23T04:49:15.229Z,1012.64
2019-05-23T04:54:12.611Z,1012.61
2019-05-23T04:59:08.749Z,1012.71
2019-05-23T05:04:05.569Z,1012.62
2019-05-23T05:09:03.095Z,1012.61
2019-05-23T05:13:59.637Z,1012.69
2019-05-23T05:18:56.141Z,1012.63
2019-05-23T05:23:52.652Z,1012.76
2019-05-23T05:28:48.426Z,1012.82
2019-05-23T05:33:44.621Z,1012.64
2019-05-23T05:38:41.077Z,1012.75
2019-05-23T05:43:37.048Z,1012.76
2019-05-23T05:48:35.140Z,1012.79
2019-05-23T05:53:31.040Z,1012.76
2019-05-23T05:58:27.450Z,1012.84
2019-05-23T06:03:22.353Z,1012.86
2019-05-23T06:08:17.689Z,1012.88
2019-05-23T06:13:13.218Z,1012.95
2019-05-23T06:18:08.805Z,1012.96
2019-05-23T06:23:04.288Z,1012.89
2019-05-23T06:27:59.938Z,1013.04
2019-05-23T06:32:56.719Z,1013.03
2019-05-23T06:37:52.653Z,1013.05
2019-05-23T06:42:50.915Z,1012.89
2019-05-23T06:47:46.223Z,1012.96
2019-05-23T06:52:42.911Z,1012.91
2019-05-23T06:57:38.633Z,1012.96
2019-05-23T07:02:34.838Z,1012.93
2019-05-23T07:07:30.892Z,1012.87
2019-05-23T07:12:26.825Z,1012.94
2019-05-23T07:17:23.365Z,1012.89
2019-05-23T07:22:19.823Z,1012.86
2019-05-23T07:27:15.733Z,1012.97
2019-05-23T07:32:12.025Z,1012.88
2019-05-23T07:37:08.195Z,1012.85
2019-05-23T07:42:04.211Z,1012.90
2019-05-23T07:47:00.675Z,1012.95
2019-05-23T07:52:00.868Z,1012.98
2019-05-23T07:57:00.793Z,1012.83
2019-05-23T08:01:58.961Z,1012.87
2019-05-23T08:06:56.376Z,1012.88
2019-05-23T08:11:53.318Z,1012.80
2019-05-23T08:16:50.488Z,1012.82
2019-05-23T08:21:48.370Z,1012.80
2019-05-23T08:26:44.692Z,1012.78
2019-05-23T08:31:41.006Z,1012.78
2019-05-23T08:36:37.664Z,1012.71
2019-05-23T08:41:34.524Z,1012.72
2019-05-23T08:46:30.919Z,1012.78
2019-05-23T08:51:28.597Z,1012.69
2019-05-23T08:56:24.644Z,1012.67
2019-05-23T09:01:21.635Z,1012.75
2019-05-23T09:06:18.446Z,1012.69
2019-05-23T09:11:14.562Z,1012.68
2019-05-23T09:16:10.669Z,1012.58
2019-05-23T09:21:07.333Z,1012.55
2019-05-23T09:26:05.250Z,1012.51
2019-05-23T09:31:00.358Z,1012.51
2019-05-23T09:35:57.107Z,1012.47
2019-05-23T09:40:54.780Z,1012.49
2019-05-23T09:45:50.564Z,1012.41
2019-05-23T09:50:45.603Z,1012.46
2019-05-23T09:55:42.271Z,1012.50
2019-05-23T10:00:38.707Z,1012.30
2019-05-23T10:05:43.324Z,1012.41
2019-05-23T10:10:37.437Z,1012.31
2019-05-23T10:15:34.838Z,1012.24
2019-05-23T10:20:30.620Z,1012.22
2019-05-23T10:25:27.954Z,1012.07
2019-05-23T10:30:23.639Z,1011.97
2019-05-23T10:35:19.634Z,1011.98
2019-05-23T10:40:16.979Z,1011.93
2019-05-23T10:45:13.716Z,1011.91
2019-05-23T10:50:09.582Z,1011.85
2019-05-23T10:55:06.009Z,1011.77
2019-05-23T11:00:03.532Z,1011.75
2019-05-23T11:05:12.211Z,1011.75
2019-05-23T11:10:00.703Z,1011.67
2019-05-23T11:14:56.748Z,1011.61
2019-05-23T11:19:53.149Z,1011.58
2019-05-23T11:24:49.836Z,1011.47
2019-05-23T11:29:46.074Z,1011.48
2019-05-23T11:34:43.375Z,1011.40
2019-05-23T11:39:49.873Z,1011.35
2019-05-23T11:44:39.411Z,1011.25
2019-05-23T11:49:36.157Z,1011.28
2019-05-23T11:54:32.337Z,1011.21
2019-05-23T11:59:28.453Z,1011.06
2019-05-23T12:04:24.268Z,1011.16
2019-05-23T12:09:19.318Z,1011.16
2019-05-23T12:14:13.934Z,1011.17
2019-05-23T12:19:09.819Z,1011.20
2019-05-23T12:24:05.829Z,1011.14
2019-05-23T12:29:02.438Z,1011.00
2019-05-23T12:33:58.168Z,1011.07
2019-05-23T12:38:54.416Z,1010.98
2019-05-23T12:43:49.328Z,1010.92
2019-05-23T12:48:45.425Z,1010.94
2019-05-23T12:53:41.632Z,1010.78
2019-05-23T12:58:37.334Z,1010.68
2019-05-23T13:03:33.528Z,1010.73
2019-05-23T13:08:29.795Z,1010.74
2019-05-23T13:13:26.867Z,1010.64
2019-05-23T13:18:23.171Z,1010.62
2019-05-23T13:23:21.393Z,1010.57
2019-05-23T13:28:16.508Z,1010.59
2019-05-23T13:33:11.965Z,1010.55
2019-05-23T13:38:07.658Z,1010.47
2019-05-23T13:43:07.419Z,1010.37
2019-05-23T13:48:03.216Z,1010.34
2019-05-23T13:52:59.543Z,1010.35
2019-05-23T13:57:56.381Z,1010.34
2019-05-23T14:02:52.170Z,1010.21
2019-05-23T14:07:49.206Z,1010.31
2019-05-23T14:12:44.491Z,1010.20
2019-05-23T14:17:40.915Z,1010.23
2019-05-23T14:22:36.459Z,1010.17
2019-05-23T14:27:32.092Z,1010.25
2019-05-23T14:32:27.973Z,1010.14
2019-05-23T14:37:23.716Z,1010.18
2019-05-23T14:42:20.369Z,1010.05
2019-05-23T14:47:16.268Z,1010.10
2019-05-23T14:52:12.512Z,1009.98
2019-05-23T14:57:08.389Z,1010.02
2019-05-23T15:02:04.345Z,1009.98
2019-05-23T15:07:00.248Z,1009.98
2019-05-23T15:11:56.394Z,1009.90
2019-05-23T15:16:53.370Z,1009.81
2019-05-23T15:21:49.242Z,1009.91
2019-05-23T15:26:45.780Z,1009.90
2019-05-23T15:31:41.815Z,1009.81
2019-05-23T15:36:38.910Z,1009.77
2019-05-23T15:41:35.555Z,1009.73
2019-05-23T15:46:31.309Z,1009.67
2019-05-23T15:51:27.398Z,1009.71
2019-05-23T15:56:28.049Z,1009.68
2019-05-23T16:01:23.157Z,1009.63
2019-05-23T16:06:19.895Z,1009.59
2019-05-23T16:11:17.701Z,1009.55
2019-05-23T16:16:13.334Z,1009.51
2019-05-23T16:21:10.243Z,1009.53
2019-05-23T16:26:06.298Z,1009.44
2019-05-23T16:31:02.119Z,1009.45
2019-05-23T16:35:58.735Z,1009.51
2019-05-23T16:40:54.382Z,1009.51
2019-05-23T16:45:50.396Z,1009.43
2019-05-23T16:50:46.293Z,1009.42
2019-05-23T16:55:42.153Z,1009.50
2019-05-23T17:00:38.641Z,1009.59
2019-05-23T17:05:34.839Z,1009.59
2019-05-23T17:10:30.557Z,1009.52
2019-05-23T17:15:26.397Z,1009.44
2019-05-23T17:20:22.267Z,1009.42
2019-05-23T17:25:19.469Z,1009.42
2019-05-23T17:30:15.035Z,1009.33
2019-05-23T17:35:11.864Z,1009.30
2019-05-23T17:40:23.233Z,1009.23
2019-05-23T17:45:06.772Z,1009.19
2019-05-23T17:50:02.844Z,1009.17
2019-05-23T17:54:58.939Z,1009.19
2019-05-23T17:59:54.661Z,1009.19
2019-05-23T18:04:50.699Z,1009.13
2019-05-23T18:09:46.408Z,1009.13
2019-05-23T18:14:43.981Z,1009.14
2019-05-23T18:19:39.528Z,1009.07
2019-05-23T18:24:35.241Z,1009.08
2019-05-23T18:29:31.194Z,1009.14
2019-05-23T18:34:27.339Z,1009.10
2019-05-23T18:39:24.015Z,1009.02
2019-05-23T18:44:20.840Z,1009.08
2019-05-23T18:49:17.332Z,1009.06
2019-05-23T18:54:13.124Z,1009.01
2019-05-23T18:59:08.894Z,1009.05
2019-05-23T19:04:04.586Z,1009.01
2019-05-23T19:09:00.399Z,1009.07
2019-05-23T19:13:56.224Z,1009.11
2019-05-23T19:18:52.360Z,1009.14
2019-05-23T19:23:48.291Z,1009.14
2019-05-23T19:28:45.028Z,1009.21
2019-05-23T19:33:41.684Z,1009.24
2019-05-23T19:38:37.203Z,1009.22
2019-05-23T19:43:34.305Z,1009.26
2019-05-23T19:48:30.365Z,1009.32
2019-05-23T19:53:26.380Z,1009.35
2019-05-23T19:58:22.260Z,1009.30
2019-05-23T20:03:19.143Z,1009.46
2019-05-23T20:08:14.791Z,1009.44
2019-05-23T20:13:10.488Z,1009.51
2019-05-23T20:18:06.369Z,1009.58
2019-05-23T20:23:03.228Z,1009.64
2019-05-23T20:27:59.364Z,1009.70
2019-05-23T20:32:55.136Z,1009.68
2019-05-23T20:37:50.854Z,1009.66
2019-05-23T20:42:47.907Z,1009.68
2019-05-23T20:47:43.826Z,1009.62
2019-05-23T20:52:39.558Z,1009.69
2019-05-23T20:57:36.325Z,1009.64
2019-05-23T21:02:32.874Z,1009.68
2019-05-23T21:07:28.081Z,1009.65
2019-05-23T21:12:29.871Z,1009.64
2019-05-23T21:17:24.506Z,1009.74
2019-05-23T21:22:20.047Z,1009.73
2019-05-23T21:27:16.928Z,1009.73
2019-05-23T21:32:12.360Z,1009.74
2019-05-23T21:37:08.530Z,1009.69
2019-05-23T21:42:04.360Z,1009.69
2019-05-23T21:47:00.342Z,1009.60
2019-05-23T21:51:56.410Z,1009.59
2019-05-23T21:56:55.516Z,1009.56
2019-05-23T22:01:50.462Z,1009.55
2019-05-23T22:06:46.347Z,1009.56
2019-05-23T22:11:44.818Z,1009.51
2019-05-23T22:16:40.405Z,1009.38
2019-05-23T22:21:36.194Z,1009.47
2019-05-23T22:26:31.991Z,1009.47
2019-05-23T22:31:27.899Z,1009.49
2019-05-23T22:36:23.692Z,1009.51
2019-05-23T22:41:19.464Z,1009.46
2019-05-23T22:46:16.467Z,1009.45
2019-05-23T22:51:11.988Z,1009.44
2019-05-23T22:56:07.969Z,1009.51
2019-05-23T23:01:05.071Z,1009.51
2019-05-23T23:06:01.627Z,1009.46
2019-05-23T23:10:57.373Z,1009.52
2019-05-23T23:15:53.146Z,1009.46
2019-05-23T23:20:49.082Z,1009.48
2019-05-23T23:25:45.147Z,1009.46
2019-05-23T23:30:41.793Z,1009.42
2019-05-23T23:35:38.344Z,1009.46
2019-05-23T23:40:33.872Z,1009.34
2019-05-23T23:45:29.350Z,1009.33
2019-05-23T23:50:25.181Z,1009.27
2019-05-23T23:55:20.771Z,1009.33
